Time;durP1;ratioP1;P1;durP2;ratioP2;P2;SDS_P1;SDS_P2;PMS_P1;PMS_P2;Temp;Humidity;BMP_temperature;BMP_pressure;BME280_temperature;BME280_humidity;BME280_pressure;Samples;Min_cycle;Max_cycle;Signal;HPM_P1;HPM_P2
2023/04/02 00:01:47;;;;;;;0.77;0.30;;;20.90;74.70;;;;;;6280776;28;20044;-46
2023/04/02 00:05:29;;;;;;;0.30;0.20;;;20.90;75.00;;;;;;6298643;28;20044;-51
2023/04/02 00:08:37;;;;;;;0.20;0.20;;;21.00;75.00;;;;;;6286161;28;20067;-50
2023/04/02 00:11:41;;;;;;;0.40;0.25;;;21.10;74.40;;;;;;6298465;28;20079;-48
2023/04/02 00:14:50;;;;;;;0.32;0.30;;;21.10;75.40;;;;;;6298279;28;20097;-46
2023/04/02 00:17:52;;;;;;;0.32;0.17;;;21.10;74.80;;;;;;6298774;28;20489;-46
2023/04/02 00:21:04;;;;;;;0.30;0.25;;;20.80;74.90;;;;;;6298171;28;20048;-50
2023/04/02 00:24:14;;;;;;;0.30;0.22;;;20.90;74.80;;;;;;6281258;28;20110;-46
2023/04/02 00:27:17;;;;;;;0.35;0.30;;;21.00;74.90;;;;;;6298452;28;20051;-48
2023/04/02 00:30:18;;;;;;;0.20;0.17;;;20.90;75.10;;;;;;6298112;28;20549;-46
2023/04/02 00:33:22;;;;;;;0.32;0.30;;;20.80;75.10;;;;;;6297996;28;20052;-52
2023/04/02 00:36:26;;;;;;;0.30;0.30;;;21.00;75.00;;;;;;6298253;28;20093;-48
2023/04/02 00:39:31;;;;;;;0.40;0.30;;;20.90;75.00;;;;;;6298117;28;20048;-50
2023/04/02 00:42:38;;;;;;;0.63;0.30;;;21.00;74.90;;;;;;6297850;28;20040;-49
2023/04/02 00:45:49;;;;;;;0.20;0.20;;;21.00;75.00;;;;;;6297644;28;20063;-49
2023/04/02 00:48:56;;;;;;;0.50;0.32;;;20.80;75.10;;;;;;6281356;28;20037;-48
2023/04/02 00:52:01;;;;;;;0.52;0.22;;;21.10;75.20;;;;;;6297704;28;20064;-50
2023/04/02 00:55:09;;;;;;;0.55;0.22;;;21.20;75.40;;;;;;6279046;28;20045;-50
2023/04/02 00:58:21;;;;;;;0.25;0.25;;;20.80;75.10;;;;;;6280278;28;20048;-53
2023/04/02 01:01:26;;;;;;;1.10;0.30;;;20.90;75.30;;;;;;6297346;28;20036;-51
2023/04/02 01:04:32;;;;;;;0.50;0.30;;;20.90;75.20;;;;;;6279699;28;20076;-50
2023/04/02 01:07:54;;;;;;;0.73;0.40;;;20.80;75.10;;;;;;6297906;28;20051;-53
2023/04/02 01:11:02;;;;;;;0.50;0.30;;;20.90;75.30;;;;;;6280567;28;20504;-52
2023/04/02 01:14:16;;;;;;;0.50;0.30;;;20.80;75.30;;;;;;6279339;28;20079;-51
2023/04/02 01:17:33;;;;;;;0.38;0.30;;;20.90;75.30;;;;;;6297002;28;20072;-53
2023/04/02 01:20:58;;;;;;;0.43;0.30;;;21.00;75.00;;;;;;6321400;22;20048;-52
2023/04/02 01:24:03;;;;;;;0.38;0.28;;;21.10;75.70;;;;;;6296861;28;20047;-53
2023/04/02 01:27:13;;;;;;;0.40;0.40;;;21.00;75.60;;;;;;6279260;28;20114;-51
2023/04/02 01:30:17;;;;;;;0.47;0.30;;;21.00;75.60;;;;;;6296884;28;20506;-52
2023/04/02 01:33:21;;;;;;;0.73;0.40;;;21.00;75.80;;;;;;6297577;28;20044;-53
2023/04/02 01:36:32;;;;;;;0.28;0.20;;;21.00;75.70;;;;;;6297266;28;20037;-53
2023/04/02 01:39:50;;;;;;;0.20;0.20;;;20.90;75.80;;;;;;6296871;28;20037;-52
2023/04/02 01:42:59;;;;;;;0.20;0.20;;;20.90;75.70;;;;;;6296684;28;20044;-55
2023/04/02 01:46:22;;;;;;;0.40;0.32;;;20.90;75.70;;;;;;6297254;28;20047;-54
2023/04/02 01:49:24;;;;;;;0.32;0.20;;;21.00;75.90;;;;;;6278946;28;20052;-55
2023/04/02 01:52:35;;;;;;;0.40;0.20;;;20.90;76.00;;;;;;6296499;28;20044;-55
2023/04/02 01:55:42;;;;;;;0.20;0.20;;;21.00;76.10;;;;;;6296511;28;20447;-54
2023/04/02 01:58:48;;;;;;;0.55;0.28;;;20.90;76.00;;;;;;6296786;28;20036;-54
2023/04/02 02:01:56;;;;;;;0.38;0.32;;;21.00;76.10;;;;;;6278631;28;20047;-56
2023/04/02 02:04:58;;;;;;;0.30;0.20;;;21.00;76.00;;;;;;6296234;28;20055;-54
2023/04/02 02:08:03;;;;;;;0.80;0.20;;;21.00;76.20;;;;;;6298705;28;20037;-54
2023/04/02 02:11:13;;;;;;;0.40;0.30;;;20.80;76.10;;;;;;6300604;28;20037;-55
2023/04/02 02:14:18;;;;;;;0.50;0.15;;;20.80;76.00;;;;;;6284066;28;20044;-54
2023/04/02 02:17:26;;;;;;;0.20;0.20;;;20.80;76.00;;;;;;6282734;28;20064;-54
2023/04/02 02:20:29;;;;;;;0.60;0.20;;;21.00;76.10;;;;;;6300938;28;20043;-54
2023/04/02 02:23:31;;;;;;;0.28;0.20;;;20.90;76.00;;;;;;6282918;28;20071;-55
2023/04/02 02:26:35;;;;;;;0.20;0.20;;;20.90;76.20;;;;;;6300136;28;20119;-54
2023/04/02 02:29:40;;;;;;;0.15;0.10;;;20.90;76.00;;;;;;6300605;28;20487;-54
2023/04/02 02:32:50;;;;;;;1.20;0.20;;;20.90;76.00;;;;;;6300635;28;20049;-55
2023/04/02 02:35:54;;;;;;;;;;;21.00;76.10;;;;;;6300594;28;20048;-56
2023/04/02 02:38:59;;;;;;;0.43;0.30;;;21.00;76.50;;;;;;6282648;28;19920;-54
2023/04/02 02:42:13;;;;;;;0.10;0.10;;;21.00;76.20;;;;;;6299900;28;20090;-55
2023/04/02 02:45:19;;;;;;;0.20;0.20;;;20.90;76.00;;;;;;6282292;28;20045;-55
2023/04/02 02:48:27;;;;;;;0.32;0.20;;;20.80;76.00;;;;;;6300180;28;20052;-54
2023/04/02 02:51:41;;;;;;;0.60;0.30;;;20.90;76.20;;;;;;6300651;28;20039;-56
2023/04/02 02:54:49;;;;;;;0.52;0.10;;;20.80;76.10;;;;;;6300211;28;20052;-54
2023/04/02 02:57:57;;;;;;;0.32;0.17;;;20.90;76.20;;;;;;6300452;28;20117;-53
2023/04/02 03:01:03;;;;;;;0.10;0.10;;;20.90;76.00;;;;;;6299815;28;20045;-55
2023/04/02 03:04:07;;;;;;;0.22;0.20;;;20.90;76.00;;;;;;6300074;28;20131;-55
2023/04/02 03:07:10;;;;;;;0.60;0.22;;;20.80;76.20;;;;;;6299780;28;20090;-55
2023/04/02 03:10:16;;;;;;;0.22;0.10;;;21.00;76.50;;;;;;6299417;28;20090;-55
2023/04/02 03:13:23;;;;;;;0.30;0.30;;;20.90;76.10;;;;;;6282298;28;20036;-54
2023/04/02 03:16:30;;;;;;;0.20;0.20;;;20.70;76.00;;;;;;6299766;28;20463;-54
2023/04/02 03:19:40;;;;;;;0.60;0.20;;;21.00;76.10;;;;;;6298416;28;20044;-55
2023/04/02 03:22:48;;;;;;;0.20;0.20;;;20.90;76.20;;;;;;6299233;28;20056;-55
2023/04/02 03:25:58;;;;;;;0.35;0.20;;;20.90;76.00;;;;;;6281653;28;20072;-55
2023/04/02 03:29:05;;;;;;;0.50;0.38;;;20.90;76.10;;;;;;6299210;28;20123;-54
2023/04/02 03:32:13;;;;;;;0.30;0.20;;;20.70;76.00;;;;;;6282017;28;20499;-55
2023/04/02 03:35:21;;;;;;;0.68;0.30;;;20.80;76.00;;;;;;6299553;28;20044;-55
2023/04/02 03:38:27;;;;;;;0.63;0.30;;;20.90;76.20;;;;;;6299087;28;20045;-54
2023/04/02 03:41:37;;;;;;;0.20;0.20;;;21.10;76.30;;;;;;6281227;28;20036;-55
2023/04/02 03:44:45;;;;;;;0.20;0.10;;;20.60;76.00;;;;;;6299387;28;20048;-52
2023/04/02 03:47:53;;;;;;;0.55;0.30;;;20.90;76.20;;;;;;6299064;28;20120;-56
2023/04/02 03:51:03;;;;;;;0.40;0.30;;;20.70;76.10;;;;;;6298629;28;20048;-56
2023/04/02 03:54:09;;;;;;;0.60;0.20;;;20.80;76.30;;;;;;6280698;28;20490;-55
2023/04/02 03:57:21;;;;;;;0.55;0.22;;;20.80;76.40;;;;;;6299255;28;20039;-55
2023/04/02 04:00:32;;;;;;;0.20;0.20;;;20.80;76.50;;;;;;6281027;28;20062;-54
2023/04/02 04:03:40;;;;;;;0.98;0.10;;;20.90;76.50;;;;;;6280799;28;20044;-52
2023/04/02 04:06:45;;;;;;;0.20;0.20;;;20.80;76.40;;;;;;6298908;28;20075;-51
2023/04/02 04:09:51;;;;;;;0.13;0.13;;;20.90;76.60;;;;;;6298596;28;20106;-51
2023/04/02 04:13:00;;;;;;;0.55;0.28;;;20.60;76.50;;;;;;6298350;28;20059;-55
2023/04/02 04:16:06;;;;;;;0.25;0.20;;;20.80;76.50;;;;;;6298716;28;20115;-52
2023/04/02 04:19:21;;;;;;;0.20;0.10;;;20.90;76.60;;;;;;6298467;28;20037;-54
2023/04/02 04:22:29;;;;;;;0.20;0.20;;;20.70;76.40;;;;;;6298143;28;20591;-51
2023/04/02 04:25:38;;;;;;;1.08;0.30;;;20.90;76.60;;;;;;6298117;28;20078;-51
2023/04/02 04:29:00;;;;;;;0.68;0.32;;;20.80;76.50;;;;;;6298345;28;20048;-55
2023/04/02 04:32:20;;;;;;;0.47;0.30;;;20.60;76.50;;;;;;6281010;28;20090;-54
2023/04/02 04:35:28;;;;;;;0.95;0.20;;;20.70;76.60;;;;;;6297974;28;20147;-53
2023/04/02 04:38:33;;;;;;;0.22;0.20;;;20.60;76.50;;;;;;6298290;28;20029;-53
2023/04/02 04:41:38;;;;;;;0.82;0.15;;;20.90;76.60;;;;;;6297847;28;20501;-54
2023/04/02 04:44:48;;;;;;;0.35;0.20;;;20.80;76.70;;;;;;6297794;28;20135;-55
2023/04/02 04:47:53;;;;;;;0.32;0.13;;;20.90;76.80;;;;;;6298320;28;20044;-55
2023/04/02 04:50:59;;;;;;;0.25;0.20;;;20.60;76.60;;;;;;6297839;28;20043;-54
2023/04/02 04:54:05;;;;;;;0.40;0.20;;;20.90;76.80;;;;;;6297632;28;20053;-53
2023/04/02 04:57:28;;;;;;;0.30;0.30;;;20.60;76.70;;;;;;6297467;28;20444;-56
2023/04/02 05:00:39;;;;;;;0.43;0.22;;;20.90;77.00;;;;;;6279867;28;20115;-52
2023/04/02 05:03:47;;;;;;;0.20;0.20;;;20.60;76.60;;;;;;6297356;28;20044;-55
2023/04/02 05:06:54;;;;;;;0.30;0.30;;;20.60;76.60;;;;;;6297366;28;20094;-53
2023/04/02 05:10:03;;;;;;;0.20;0.20;;;20.80;76.90;;;;;;6263755;28;20519;-54
2023/04/02 05:13:18;;;;;;;0.10;0.10;;;20.80;76.90;;;;;;6297355;28;20053;-55
2023/04/02 05:16:26;;;;;;;0.30;0.10;;;20.50;76.60;;;;;;6297183;28;20471;-53
2023/04/02 05:19:36;;;;;;;0.20;0.20;;;21.10;76.80;;;;;;6296945;28;20072;-56
2023/04/02 05:22:45;;;;;;;0.13;0.10;;;20.60;76.60;;;;;;6279718;28;20040;-55
2023/04/02 05:25:54;;;;;;;0.30;0.28;;;20.60;76.70;;;;;;6297777;28;20039;-54
2023/04/02 05:29:00;;;;;;;0.25;0.15;;;20.80;77.00;;;;;;6279944;28;20166;-56
2023/04/02 05:32:07;;;;;;;0.20;0.20;;;20.40;76.60;;;;;;6297227;28;20056;-55
2023/04/02 05:35:16;;;;;;;0.43;0.20;;;20.70;76.80;;;;;;6296865;28;20492;-55
2023/04/02 05:38:22;;;;;;;0.90;0.40;;;20.80;76.80;;;;;;6280157;28;20047;-55
2023/04/02 05:41:27;;;;;;;0.30;0.30;;;20.70;76.90;;;;;;6296433;28;20047;-55
2023/04/02 05:44:33;;;;;;;0.45;0.15;;;20.80;77.00;;;;;;6297155;28;20044;-54
2023/04/02 05:47:39;;;;;;;0.55;0.20;;;20.70;76.80;;;;;;6296695;28;20048;-54
2023/04/02 05:50:47;;;;;;;0.20;0.20;;;20.80;76.80;;;;;;6296955;28;20466;-55
2023/04/02 05:53:59;;;;;;;0.20;0.20;;;20.80;76.70;;;;;;6296841;28;20048;-54
2023/04/02 05:57:05;;;;;;;0.35;0.20;;;20.60;76.50;;;;;;6279002;28;20051;-55
2023/04/02 06:00:16;;;;;;;0.40;0.28;;;20.60;76.60;;;;;;6279175;28;20450;-54
2023/04/02 06:03:26;;;;;;;0.32;0.10;;;20.70;76.60;;;;;;6279129;28;20053;-55
2023/04/02 06:06:44;;;;;;;0.30;0.30;;;20.50;76.50;;;;;;6297099;28;20044;-55
2023/04/02 06:09:53;;;;;;;0.20;0.20;;;20.70;76.60;;;;;;6296275;28;20131;-54
2023/04/02 06:13:02;;;;;;;0.63;0.20;;;20.50;76.30;;;;;;6296487;28;20056;-54
2023/04/02 06:16:12;;;;;;;0.20;0.20;;;20.70;76.40;;;;;;6296346;28;20048;-55
2023/04/02 06:19:19;;;;;;;0.30;0.20;;;20.70;76.40;;;;;;6296188;28;20041;-52
2023/04/02 06:22:25;;;;;;;0.20;0.20;;;20.60;75.70;;;;;;6295902;28;20052;-55
2023/04/02 06:25:38;;;;;;;0.23;0.20;;;20.70;76.00;;;;;;6279692;28;20036;-56
2023/04/02 06:28:47;;;;;;;0.10;0.10;;;20.80;76.00;;;;;;6296117;28;20291;-54
2023/04/02 06:31:54;;;;;;;0.20;0.20;;;20.60;75.80;;;;;;6278489;28;20097;-56
2023/04/02 06:34:57;;;;;;;0.22;0.20;;;20.80;75.90;;;;;;6278907;28;20504;-54
2023/04/02 06:38:00;;;;;;;;;;;20.60;75.70;;;;;;6296405;28;20064;-53
2023/04/02 06:41:13;;;;;;;0.35;0.20;;;20.50;75.90;;;;;;6295823;28;20394;-53
2023/04/02 06:44:25;;;;;;;0.00;0.00;;;20.80;75.50;;;;;;6295987;28;20127;-54
2023/04/02 06:47:50;;;;;;;0.25;0.20;;;20.60;75.30;;;;;;6295672;28;20051;-54
2023/04/02 06:51:05;;;;;;;0.30;0.30;;;20.70;75.20;;;;;;6279097;28;20044;-55
2023/04/02 06:54:13;;;;;;;0.35;0.20;;;20.50;74.90;;;;;;6296783;28;20048;-55
2023/04/02 06:57:15;;;;;;;0.20;0.10;;;20.70;75.50;;;;;;6300153;28;20055;-52
2023/04/02 07:00:25;;;;;;;0.15;0.15;;;20.70;75.00;;;;;;6299991;28;20486;-55
2023/04/02 07:03:30;;;;;;;0.30;0.10;;;20.50;74.60;;;;;;6299647;28;20052;-53
2023/04/02 07:06:38;;;;;;;0.10;0.10;;;20.70;74.60;;;;;;6282688;28;20051;-52
2023/04/02 07:09:41;;;;;;;0.35;0.20;;;20.80;72.30;;;;;;6299691;28;20040;-56
2023/04/02 07:12:43;;;;;;;0.10;0.10;;;20.80;74.50;;;;;;6299363;28;20055;-53
2023/04/02 07:15:48;;;;;;;0.25;0.13;;;20.80;74.50;;;;;;6299776;28;20045;-55
2023/04/02 07:18:51;;;;;;;0.30;0.25;;;20.70;74.00;;;;;;6281769;28;20420;-54
2023/04/02 07:21:53;;;;;;;0.20;0.20;;;20.70;73.90;;;;;;6299437;28;20151;-55
2023/04/02 07:24:56;;;;;;;0.20;0.10;;;20.80;73.90;;;;;;6299678;28;20044;-55
2023/04/02 07:27:57;;;;;;;0.20;0.20;;;20.80;73.40;;;;;;6299368;28;20499;-55
2023/04/02 07:31:00;;;;;;;0.28;0.20;;;20.80;73.60;;;;;;6299232;28;20045;-55
2023/04/02 07:34:01;;;;;;;0.25;0.20;;;20.70;73.60;;;;;;6299471;28;20055;-54
2023/04/02 07:37:03;;;;;;;0.73;0.20;;;20.60;73.50;;;;;;6299210;28;20091;-54
2023/04/02 07:40:07;;;;;;;0.40;0.20;;;20.90;73.50;;;;;;6281472;28;20036;-54
2023/04/02 07:43:10;;;;;;;0.40;0.30;;;20.80;73.40;;;;;;6299262;28;20052;-54
2023/04/02 07:46:13;;;;;;;0.20;0.20;;;20.60;73.10;;;;;;6281267;28;20082;-55
2023/04/02 07:49:15;;;;;;;0.40;0.20;;;20.60;73.00;;;;;;6299655;28;20036;-53
2023/04/02 07:52:20;;;;;;;0.20;0.20;;;20.80;73.10;;;;;;6281197;28;20377;-55
2023/04/02 07:55:24;;;;;;;0.20;0.20;;;20.70;73.00;;;;;;6299609;28;20492;-56
2023/04/02 07:58:26;;;;;;;;;;;20.80;73.10;;;;;;6299109;28;20068;-56
2023/04/02 08:01:33;;;;;;;0.10;0.10;;;20.70;73.30;;;;;;6298516;28;19927;-53
2023/04/02 08:04:35;;;;;;;0.32;0.22;;;20.90;72.80;;;;;;6298283;28;20048;-53
2023/04/02 08:07:37;;;;;;;0.20;0.20;;;20.90;73.00;;;;;;6298583;28;20045;-54
2023/04/02 08:10:39;;;;;;;0.28;0.20;;;20.70;72.70;;;;;;6298706;28;20037;-54
2023/04/02 08:13:40;;;;;;;0.52;0.30;;;21.00;73.10;;;;;;6298588;28;20048;-55
2023/04/02 08:16:45;;;;;;;0.32;0.17;;;20.90;72.80;;;;;;6298321;28;20037;-54
2023/04/02 08:19:47;;;;;;;0.20;0.20;;;21.00;73.50;;;;;;6298193;28;20123;-53
2023/04/02 08:22:57;;;;;;;0.20;0.20;;;20.90;73.00;;;;;;6298366;28;20040;-55
2023/04/02 08:26:02;;;;;;;0.20;0.10;;;20.90;72.90;;;;;;6298321;28;20477;-55
2023/04/02 08:29:03;;;;;;;0.25;0.20;;;20.80;72.60;;;;;;6298791;28;20032;-54
2023/04/02 08:32:06;;;;;;;0.17;0.17;;;21.10;73.00;;;;;;6298327;28;20036;-54
2023/04/02 08:35:10;;;;;;;0.40;0.30;;;20.80;72.70;;;;;;6297965;28;20098;-55
2023/04/02 08:38:16;;;;;;;0.15;0.15;;;21.00;72.70;;;;;;6297874;28;20511;-55
2023/04/02 08:41:26;;;;;;;0.30;0.20;;;20.90;72.70;;;;;;6298178;28;20078;-54
2023/04/02 08:44:42;;;;;;;0.22;0.20;;;21.00;72.70;;;;;;6280528;28;20048;-54
2023/04/02 08:47:46;;;;;;;0.38;0.30;;;21.10;72.60;;;;;;6298478;28;20383;-53
2023/04/02 08:50:51;;;;;;;0.22;0.22;;;20.90;72.60;;;;;;6279812;28;20135;-53
2023/04/02 08:53:58;;;;;;;0.20;0.20;;;21.20;72.60;;;;;;6280389;28;20063;-53
2023/04/02 08:57:04;;;;;;;0.20;0.20;;;20.90;72.20;;;;;;6297577;28;20044;-51
2023/04/02 09:00:19;;;;;;;0.38;0.13;;;20.80;72.00;;;;;;6297482;28;20517;-56
2023/04/02 09:03:28;;;;;;;0.15;0.15;;;20.90;72.10;;;;;;6281722;28;20498;-55
2023/04/02 09:06:32;;;;;;;0.28;0.28;;;21.00;72.10;;;;;;6280013;28;20430;-54
2023/04/02 09:09:37;;;;;;;0.20;0.20;;;20.80;72.30;;;;;;6297270;28;20040;-55
2023/04/02 09:12:41;;;;;;;0.57;0.20;;;20.90;72.20;;;;;;6297540;28;20492;-55
2023/04/02 09:15:44;;;;;;;0.10;0.10;;;21.10;72.50;;;;;;6297666;28;20048;-55
2023/04/02 09:18:46;;;;;;;0.38;0.22;;;21.00;72.10;;;;;;6296488;28;20040;-55
2023/04/02 09:22:07;;;;;;;0.20;0.20;;;20.90;72.30;;;;;;6297316;28;20045;-55
2023/04/02 09:25:13;;;;;;;0.17;0.17;;;21.00;72.10;;;;;;6297026;28;20086;-55
2023/04/02 09:28:15;;;;;;;0.20;0.20;;;21.10;72.20;;;;;;6246087;28;20048;-54
2023/04/02 09:31:21;;;;;;;0.35;0.30;;;21.00;72.20;;;;;;6279166;28;20045;-55
2023/04/02 09:34:27;;;;;;;0.88;0.25;;;21.10;71.90;;;;;;6279376;28;20040;-52
2023/04/02 09:37:29;;;;;;;0.20;0.20;;;21.30;71.90;;;;;;6297584;28;20052;-54
2023/04/02 09:40:32;;;;;;;;;;;21.00;71.80;;;;;;6297132;28;20094;-56
2023/04/02 09:43:35;;;;;;;0.20;0.20;;;20.90;71.90;;;;;;6296903;28;19921;-56
2023/04/02 09:46:48;;;;;;;0.50;0.20;;;20.60;71.60;;;;;;6279830;28;20052;-55
2023/04/02 09:49:51;;;;;;;0.10;0.10;;;21.00;71.50;;;;;;6279066;28;20573;-56
2023/04/02 09:52:52;;;;;;;0.30;0.20;;;21.10;71.50;;;;;;6297143;28;20431;-52
2023/04/02 09:56:08;;;;;;;0.30;0.20;;;21.10;71.20;;;;;;6296999;28;20468;-54
2023/04/02 09:59:15;;;;;;;0.45;0.30;;;21.20;71.00;;;;;;6296855;28;20396;-53
2023/04/02 10:02:26;;;;;;;0.20;0.20;;;21.00;70.90;;;;;;6278659;28;20507;-52
2023/04/02 10:05:31;;;;;;;0.15;0.13;;;20.80;70.80;;;;;;6296911;28;20515;-53
2023/04/02 10:08:44;;;;;;;0.20;0.10;;;21.10;71.00;;;;;;6280175;28;20389;-52
2023/04/02 10:11:46;;;;;;;0.20;0.20;;;21.10;71.00;;;;;;6296533;28;20466;-54
2023/04/02 10:14:52;;;;;;;0.20;0.20;;;21.20;70.70;;;;;;6296910;28;20444;-54
2023/04/02 10:18:03;;;;;;;0.10;0.10;;;21.20;70.80;;;;;;6296871;28;20039;-52
2023/04/02 10:21:07;;;;;;;0.20;0.10;;;21.10;70.60;;;;;;6279292;28;20496;-54
2023/04/02 10:24:11;;;;;;;0.20;0.20;;;21.20;70.70;;;;;;6296186;28;20044;-55
2023/04/02 10:27:24;;;;;;;0.50;0.30;;;21.30;70.80;;;;;;6279250;28;20036;-52
2023/04/02 10:30:39;;;;;;;0.17;0.17;;;21.00;70.60;;;;;;6300748;28;20440;-53
2023/04/02 10:33:46;;;;;;;0.10;0.10;;;21.20;70.60;;;;;;6300797;28;20504;-52
2023/04/02 10:36:53;;;;;;;0.20;0.20;;;21.10;70.70;;;;;;6300837;28;20499;-54
2023/04/02 10:39:58;;;;;;;0.57;0.20;;;21.10;70.90;;;;;;6282590;28;20048;-53
2023/04/02 10:43:25;;;;;;;0.30;0.30;;;21.10;71.00;;;;;;6300413;28;20044;-53
2023/04/02 10:46:35;;;;;;;0.20;0.20;;;21.10;71.00;;;;;;6284877;28;20599;-54
2023/04/02 10:49:45;;;;;;;0.25;0.20;;;21.50;71.30;;;;;;6300153;28;20044;-54
2023/04/02 10:52:56;;;;;;;0.25;0.20;;;21.20;71.20;;;;;;6283495;28;20067;-52
2023/04/02 10:56:07;;;;;;;0.32;0.20;;;21.10;71.30;;;;;;6282998;28;20048;-54
2023/04/02 10:59:17;;;;;;;0.10;0.10;;;21.00;71.30;;;;;;6299834;28;20040;-54
2023/04/02 11:02:34;;;;;;;0.10;0.10;;;21.20;71.20;;;;;;6282855;28;20036;-53
2023/04/02 11:05:43;;;;;;;0.17;0.17;;;21.20;71.00;;;;;;6299880;28;20053;-50
2023/04/02 11:08:47;;;;;;;0.20;0.17;;;21.00;70.90;;;;;;6299785;28;20044;-52
2023/04/02 11:11:51;;;;;;;0.28;0.20;;;20.80;70.90;;;;;;6299572;28;20048;-52
2023/04/02 11:14:55;;;;;;;0.20;0.20;;;21.10;71.10;;;;;;6299808;28;20048;-54
2023/04/02 11:17:57;;;;;;;0.30;0.10;;;21.20;71.10;;;;;;6299677;28;20072;-52
2023/04/02 11:21:01;;;;;;;0.13;0.13;;;21.20;71.20;;;;;;6281574;28;20045;-54
2023/04/02 11:24:04;;;;;;;0.15;0.15;;;20.90;70.90;;;;;;6299592;28;20051;-54
2023/04/02 11:27:22;;;;;;;0.20;0.20;;;21.10;71.00;;;;;;6299549;28;20032;-53
2023/04/02 11:30:25;;;;;;;0.30;0.13;;;21.10;70.90;;;;;;6299334;28;20040;-52
2023/04/02 11:33:39;;;;;;;0.10;0.10;;;21.00;71.00;;;;;;6282348;28;20037;-54
2023/04/02 11:37:01;;;;;;;0.10;0.10;;;21.20;71.00;;;;;;6282578;28;20033;-52
2023/04/02 11:40:21;;;;;;;0.20;0.10;;;21.10;71.00;;;;;;6298144;28;20041;-54
2023/04/02 11:43:47;;;;;;;0.10;0.10;;;21.20;70.90;;;;;;6283331;28;20185;-50
2023/04/02 11:46:49;;;;;;;0.30;0.10;;;21.10;70.70;;;;;;6298898;28;20045;-52
2023/04/02 11:50:00;;;;;;;0.10;0.10;;;21.30;70.90;;;;;;6299132;28;20048;-52
2023/04/02 11:53:06;;;;;;;0.20;0.20;;;21.10;70.70;;;;;;6281303;28;20048;-54
2023/04/02 11:56:20;;;;;;;0.20;0.15;;;21.10;70.80;;;;;;6281454;28;20066;-54
2023/04/02 11:59:30;;;;;;;0.20;0.20;;;21.20;70.90;;;;;;6282259;28;20365;-54
2023/04/02 12:02:42;;;;;;;0.13;0.13;;;21.00;70.60;;;;;;6298612;28;20037;-53
2023/04/02 12:05:50;;;;;;;0.10;0.10;;;21.00;70.60;;;;;;6281787;28;20048;-53
2023/04/02 12:09:06;;;;;;;0.52;0.20;;;21.20;70.80;;;;;;6264354;28;20046;-53
2023/04/02 12:12:24;;;;;;;0.20;0.20;;;21.30;71.00;;;;;;6298597;28;20037;-52
2023/04/02 12:15:32;;;;;;;0.20;0.20;;;21.20;70.80;;;;;;6298516;28;20044;-54
2023/04/02 12:18:35;;;;;;;0.10;0.10;;;21.30;71.00;;;;;;6280566;28;20083;-54
2023/04/02 12:21:47;;;;;;;0.10;0.10;;;21.30;70.90;;;;;;6281891;28;20064;-53
2023/04/02 12:24:49;;;;;;;0.20;0.20;;;21.20;70.70;;;;;;6281337;28;20476;-54
2023/04/02 12:28:16;;;;;;;0.20;0.20;;;21.30;70.90;;;;;;6281233;28;20488;-54
2023/04/02 12:31:24;;;;;;;0.05;0.05;;;21.30;70.80;;;;;;6280901;28;20037;-53
2023/04/02 12:34:30;;;;;;;0.17;0.17;;;20.90;70.30;;;;;;6298385;28;20044;-54
2023/04/02 12:37:31;;;;;;;0.10;0.10;;;20.90;70.50;;;;;;6280391;28;20052;-50
2023/04/02 12:40:33;;;;;;;0.28;0.20;;;21.10;70.60;;;;;;6280111;28;20056;-53
2023/04/02 12:43:38;;;;;;;0.22;0.20;;;21.30;70.80;;;;;;6297975;28;20068;-54
2023/04/02 12:46:41;;;;;;;0.20;0.20;;;21.20;70.60;;;;;;6247913;28;20124;-54
2023/04/02 12:49:44;;;;;;;0.10;0.10;;;21.00;70.40;;;;;;6298357;28;20036;-52
2023/04/02 12:52:53;;;;;;;0.22;0.13;;;21.10;70.50;;;;;;6280696;28;20049;-54
2023/04/02 12:55:55;;;;;;;0.20;0.17;;;21.30;70.60;;;;;;6298345;28;20032;-54
2023/04/02 12:59:00;;;;;;;0.30;0.20;;;21.30;70.60;;;;;;6262569;28;20040;-54
2023/04/02 13:02:15;;;;;;;0.10;0.10;;;21.10;70.20;;;;;;6279864;28;20044;-52
2023/04/02 13:05:33;;;;;;;0.10;0.10;;;21.10;70.30;;;;;;6280244;28;20493;-54
2023/04/02 13:08:39;;;;;;;0.17;0.17;;;21.20;70.30;;;;;;6297368;28;20044;-54
2023/04/02 13:11:43;;;;;;;0.10;0.10;;;21.20;70.40;;;;;;6296970;28;20084;-54
2023/04/02 13:14:52;;;;;;;0.20;0.20;;;21.20;70.50;;;;;;6263059;28;20129;-53
2023/04/02 13:18:05;;;;;;;0.35;0.30;;;21.20;70.40;;;;;;6297740;28;20045;-54
2023/04/02 13:21:26;;;;;;;0.25;0.25;;;21.30;70.70;;;;;;6279625;28;20036;-52
2023/04/02 13:24:31;;;;;;;0.25;0.20;;;21.20;70.60;;;;;;6279928;28;20055;-55
2023/04/02 13:27:33;;;;;;;0.15;0.15;;;21.10;70.50;;;;;;6279419;28;20059;-53
2023/04/02 13:30:35;;;;;;;0.20;0.10;;;21.30;70.80;;;;;;6296945;28;20067;-53
2023/04/02 13:33:37;;;;;;;0.20;0.20;;;21.20;70.70;;;;;;6297219;28;20048;-54
2023/04/02 13:36:38;;;;;;;0.13;0.13;;;21.20;70.60;;;;;;6297091;28;20518;-53
2023/04/02 13:39:39;;;;;;;;;;;21.30;70.60;;;;;;6297234;28;20048;-53
2023/04/02 13:42:48;;;;;;;0.17;0.10;;;21.30;70.80;;;;;;6297248;28;19927;-53
2023/04/02 13:45:53;;;;;;;0.10;0.10;;;21.30;70.60;;;;;;6296743;28;20097;-52
2023/04/02 13:48:56;;;;;;;0.30;0.30;;;21.30;70.70;;;;;;6278967;28;20119;-54
2023/04/02 13:52:01;;;;;;;0.10;0.10;;;21.30;70.90;;;;;;6297199;28;20040;-54
2023/04/02 13:55:03;;;;;;;0.30;0.17;;;21.00;70.60;;;;;;6297102;28;20080;-52
2023/04/02 13:58:05;;;;;;;0.28;0.20;;;21.10;70.70;;;;;;6296554;28;20044;-54
2023/04/02 14:01:08;;;;;;;0.10;0.10;;;21.20;70.90;;;;;;6296807;28;20044;-53
2023/04/02 14:04:11;;;;;;;0.22;0.20;;;21.20;70.80;;;;;;6299270;28;20045;-54
2023/04/02 14:07:28;;;;;;;0.10;0.10;;;21.30;70.80;;;;;;6283393;28;20090;-54
2023/04/02 14:10:44;;;;;;;0.20;0.20;;;21.40;70.80;;;;;;6301441;28;20082;-51
2023/04/02 14:14:07;;;;;;;0.38;0.20;;;20.90;70.50;;;;;;6300894;28;20049;-54
2023/04/02 14:17:20;;;;;;;0.20;0.20;;;21.30;70.60;;;;;;6301491;28;20045;-54
2023/04/02 14:20:33;;;;;;;0.25;0.25;;;21.30;70.70;;;;;;6301133;28;20815;-54
2023/04/02 14:23:48;;;;;;;0.22;0.22;;;21.20;70.70;;;;;;6300674;28;20068;-54
2023/04/02 14:27:00;;;;;;;0.13;0.13;;;21.40;70.80;;;;;;6300537;28;20480;-54
2023/04/02 14:30:07;;;;;;;0.20;0.20;;;21.20;70.60;;;;;;6300948;28;20055;-54
2023/04/02 14:33:18;;;;;;;0.32;0.20;;;21.30;70.50;;;;;;6267341;28;20044;-52
2023/04/02 14:36:25;;;;;;;0.28;0.22;;;21.30;70.70;;;;;;6300873;28;20040;-52
2023/04/02 14:39:37;;;;;;;0.10;0.10;;;21.30;70.60;;;;;;6300685;28;20408;-54
2023/04/02 14:42:43;;;;;;;0.30;0.28;;;21.20;70.50;;;;;;6300281;28;20043;-54
2023/04/02 14:45:56;;;;;;;0.20;0.20;;;21.40;70.50;;;;;;6282113;28;20044;-53
2023/04/02 14:49:03;;;;;;;0.47;0.30;;;21.30;70.40;;;;;;6300008;28;20063;-53
2023/04/02 14:52:10;;;;;;;0.30;0.20;;;21.30;70.50;;;;;;6300332;28;20450;-55
2023/04/02 14:55:21;;;;;;;0.20;0.20;;;21.50;70.60;;;;;;6282782;28;20105;-54
2023/04/02 14:58:27;;;;;;;0.10;0.10;;;21.40;70.40;;;;;;6299689;28;20094;-54
2023/04/02 15:01:34;;;;;;;0.20;0.20;;;21.20;70.40;;;;;;6300379;28;20045;-54
2023/04/02 15:04:40;;;;;;;0.20;0.20;;;21.40;70.50;;;;;;6299701;28;20052;-53
2023/04/02 15:07:47;;;;;;;0.20;0.20;;;21.20;70.40;;;;;;6299733;28;20488;-53
2023/04/02 15:11:00;;;;;;;0.20;0.20;;;21.40;70.60;;;;;;6282071;28;20427;-54
2023/04/02 15:14:16;;;;;;;0.25;0.20;;;21.40;70.70;;;;;;6281443;28;20399;-53
2023/04/02 15:17:20;;;;;;;0.20;0.20;;;21.30;70.30;;;;;;6299567;28;20508;-53
2023/04/02 15:20:22;;;;;;;0.10;0.10;;;21.20;70.30;;;;;;6299006;28;20044;-53
2023/04/02 15:23:36;;;;;;;0.50;0.20;;;21.40;70.30;;;;;;6299526;28;20089;-54
2023/04/02 15:26:52;;;;;;;0.10;0.10;;;21.20;70.00;;;;;;6299535;28;20041;-55
2023/04/02 15:30:00;;;;;;;0.20;0.20;;;21.40;70.30;;;;;;6299229;28;20094;-53
2023/04/02 15:33:28;;;;;;;0.20;0.20;;;21.50;70.30;;;;;;6299705;28;20068;-54
2023/04/02 15:36:46;;;;;;;0.22;0.22;;;21.40;70.30;;;;;;6285215;28;20041;-54
2023/04/02 15:40:08;;;;;;;0.30;0.30;;;21.30;70.40;;;;;;6299092;28;20490;-54
2023/04/02 15:43:15;;;;;;;;;;;21.30;70.60;;;;;;6281902;28;20044;-53
2023/04/02 15:46:23;;;;;;;0.20;0.20;;;21.80;71.00;;;;;;6281289;28;19924;-54
2023/04/02 15:49:41;;;;;;;0.32;0.32;;;21.10;70.30;;;;;;6298970;28;20128;-54
2023/04/02 15:52:53;;;;;;;0.30;0.30;;;21.50;70.40;;;;;;6299355;28;20041;-53
2023/04/02 15:56:06;;;;;;;0.20;0.20;;;21.30;70.40;;;;;;6299276;28;20392;-53
2023/04/02 15:59:30;;;;;;;0.20;0.20;;;21.10;70.00;;;;;;6282781;28;20037;-52
2023/04/02 16:02:50;;;;;;;0.10;0.10;;;21.20;70.40;;;;;;6298901;28;20037;-52
2023/04/02 16:06:11;;;;;;;0.20;0.20;;;21.30;70.40;;;;;;6283080;28;20071;-53
2023/04/02 16:09:25;;;;;;;0.30;0.30;;;21.30;70.30;;;;;;6298496;28;20511;-54
2023/04/02 16:12:28;;;;;;;0.30;0.20;;;21.30;70.30;;;;;;6281851;28;20480;-50
2023/04/02 16:15:36;;;;;;;0.20;0.20;;;21.20;70.00;;;;;;6298798;28;20055;-54
2023/04/02 16:18:46;;;;;;;0.22;0.20;;;21.20;70.10;;;;;;6280504;28;20036;-52
2023/04/02 16:21:53;;;;;;;0.30;0.20;;;21.30;70.60;;;;;;6281963;28;20041;-53